Time;durP1;ratioP1;P1;durP2;ratioP2;P2;SDS_P1;SDS_P2;PMS_P1;PMS_P2;Temp;Humidity;BMP_temperature;BMP_pressure;BME280_temperature;BME280_humidity;BME280_pressure;Samples;Min_cycle;Max_cycle;Signal;HPM_P1;HPM_P2
2021/12/28 00:01:58;;;;;;;;;;;;;;;9.26;45.79;99584.25;4978583;28;128183;-63
2021/12/28 00:04:24;;;;;;;;;;;;;;;9.26;45.98;99576.19;4966359;28;118733;-63
2021/12/28 00:06:50;;;;;;;;;;;;;;;9.24;45.83;99579.16;4959392;28;128962;-63
2021/12/28 00:09:16;;;;;;;;;;;;;;;9.24;46.18;99570.31;4962603;28;126974;-55
2021/12/28 00:11:42;;;;;;;;;;;;;;;9.24;46.09;99573.78;4979249;28;127311;-63
2021/12/28 00:14:08;;;;;;;;;;;;;;;9.23;45.87;99579.44;4977702;28;117430;-63
2021/12/28 00:17:58;;;;;;;;;;;;;;;9.23;46.12;99571.38;4978231;28;99923;-55
2021/12/28 00:19:20;;;;;;;;;;;;;;;9.21;46.13;99581.59;4979883;27;98264;-61
2021/12/28 00:21:46;;;;;;;;;;;;;;;9.21;45.80;99578.91;4979027;28;122722;-55
2021/12/28 00:24:12;;;;;;;;;;;;;;;9.21;45.78;99568.16;4961035;28;104840;-56
2021/12/28 00:26:38;;;;;;;;;;;;;;;9.20;45.91;99562.00;4959308;28;108450;-63
2021/12/28 00:29:04;;;;;;;;;;;;;;;9.19;46.05;99579.19;4973106;27;128910;-63
2021/12/28 00:31:30;;;;;;;;;;;;;;;9.18;45.92;99574.09;4981228;27;127567;-63
2021/12/28 00:33:58;;;;;;;;;;;;;;;9.17;45.66;99575.97;4981371;27;116677;-63
2021/12/28 00:36:24;;;;;;;;;;;;;;;9.18;45.93;99566.81;4966673;27;98879;-63
2021/12/28 00:38:49;;;;;;;;;;;;;;;9.16;45.63;99574.38;4972368;28;123825;-56
2021/12/28 00:41:15;;;;;;;;;;;;;;;9.16;45.73;99582.44;4964561;28;127643;-57
2021/12/28 00:43:41;;;;;;;;;;;;;;;9.17;45.96;99559.06;4963451;28;98275;-55
2021/12/28 00:46:08;;;;;;;;;;;;;;;9.16;46.14;99560.94;4962809;28;99152;-56
2021/12/28 00:48:34;;;;;;;;;;;;;;;9.15;46.04;99575.44;4962859;28;97755;-56
2021/12/28 00:51:00;;;;;;;;;;;;;;;9.13;46.46;99566.88;4976427;28;98038;-57
2021/12/28 00:53:26;;;;;;;;;;;;;;;9.14;45.94;99581.91;4982246;27;97805;-56
2021/12/28 00:55:52;;;;;;;;;;;;;;;9.14;46.32;99575.75;4977085;28;98641;-56
2021/12/28 00:58:18;;;;;;;;;;;;;;;9.13;45.94;99566.88;4962081;28;111557;-63
2021/12/28 01:00:44;;;;;;;;;;;;;;;9.13;46.05;99571.44;4962693;28;102571;-56
2021/12/28 01:03:10;;;;;;;;;;;;;;;9.12;46.30;99576.03;4963087;28;97919;-63
2021/12/28 01:05:36;;;;;;;;;;;;;;;9.11;46.06;99569.03;4968343;28;102163;-56
2021/12/28 01:08:03;;;;;;;;;;;;;;;9.11;45.83;99571.72;4969350;28;99221;-63
2021/12/28 01:10:32;;;;;;;;;;;;;;;9.11;45.72;99571.72;4970782;28;98011;-56
2021/12/28 01:12:58;;;;;;;;;;;;;;;9.10;46.29;99570.09;4983094;27;97858;-56
2021/12/28 01:15:25;;;;;;;;;;;;;;;9.10;45.81;99573.59;4974229;27;100415;-56
2021/12/28 01:17:50;;;;;;;;;;;;;;;9.09;46.14;99577.38;4963067;28;98257;-63
2021/12/28 01:20:16;;;;;;;;;;;;;;;9.07;45.90;99566.09;4968908;28;127327;-56
2021/12/28 01:22:42;;;;;;;;;;;;;;;9.09;46.37;99568.50;4982420;28;97855;-56
2021/12/28 01:25:09;;;;;;;;;;;;;;;9.05;45.83;99557.50;4981515;27;116362;-63
2021/12/28 01:27:35;;;;;;;;;;;;;;;9.06;45.58;99567.16;4981962;27;102723;-56
2021/12/28 01:30:01;;;;;;;;;;;;;;;9.06;45.68;99556.41;4961118;28;127658;-56
2021/12/28 01:32:27;;;;;;;;;;;;;;;9.06;46.34;99553.72;4962053;28;101620;-56
2021/12/28 01:34:53;;;;;;;;;;;;;;;9.05;45.74;99554.81;4961440;28;128652;-56
2021/12/28 01:37:19;;;;;;;;;;;;;;;9.06;45.75;99547.56;4961375;28;127986;-63
2021/12/28 01:39:45;;;;;;;;;;;;;;;9.06;45.61;99552.94;4963963;28;124796;-64
2021/12/28 01:42:11;;;;;;;;;;;;;;;9.05;45.58;99544.06;4981711;27;98428;-57
2021/12/28 01:44:37;;;;;;;;;;;;;;;9.06;45.92;99536.81;4980726;28;99270;-63
2021/12/28 01:47:03;;;;;;;;;;;;;;;9.05;46.17;99544.06;4980805;27;128668;-63
2021/12/28 01:49:29;;;;;;;;;;;;;;;9.06;45.78;99534.13;4964532;27;121865;-63
2021/12/28 01:51:55;;;;;;;;;;;;;;;9.05;46.20;99537.88;4981821;28;97686;-56
2021/12/28 01:54:21;;;;;;;;;;;;;;;9.06;45.96;99534.13;4979338;28;128002;-63
2021/12/28 01:56:47;;;;;;;;;;;;;;;9.06;45.76;99534.13;4981166;28;98547;-63
2021/12/28 01:59:15;;;;;;;;;;;;;;;9.07;45.89;99527.66;4979634;27;97918;-63
2021/12/28 02:01:41;;;;;;;;;;;;;;;9.06;46.08;99526.06;4982245;28;97920;-56
2021/12/28 02:04:21;;;;;;;;;;;;;;;9.06;46.01;99534.13;4981068;27;109522;-64
2021/12/28 02:06:48;;;;;;;;;;;;;;;9.06;45.90;99521.47;4944606;28;98426;-56
2021/12/28 02:09:14;;;;;;;;;;;;;;;9.07;45.77;99517.69;4979249;28;97719;-63
2021/12/28 02:11:40;;;;;;;;;;;;;;;9.08;46.07;99518.53;4977757;28;118363;-63
2021/12/28 02:14:07;;;;;;;;;;;;;;;9.09;45.50;99514.75;4982075;28;98843;-56
2021/12/28 02:16:40;;;;;;;;;;;;;;;9.09;46.24;99518.22;4971534;27;98077;-56
2021/12/28 02:19:07;;;;;;;;;;;;;;;9.09;45.88;99512.84;4960970;28;98351;-57
2021/12/28 02:21:33;;;;;;;;;;;;;;;9.12;45.86;99507.97;4962966;28;98023;-57
2021/12/28 02:24:00;;;;;;;;;;;;;;;9.11;45.94;99496.44;4960665;28;119360;-64
2021/12/28 02:26:26;;;;;;;;;;;;;;;9.13;46.09;99505.03;4961263;28;120301;-63
2021/12/28 02:28:52;;;;;;;;;;;;;;;9.14;45.88;99501.25;4960244;28;98252;-56
2021/12/28 02:31:18;;;;;;;;;;;;;;;9.16;45.65;99499.09;4960980;28;118688;-55
2021/12/28 02:33:44;;;;;;;;;;;;;;;9.18;45.69;99501.50;4962034;28;98343;-63
2021/12/28 02:36:10;;;;;;;;;;;;;;;9.18;46.02;99499.59;4958509;28;115413;-63
2021/12/28 02:38:36;;;;;;;;;;;;;;;9.22;46.19;99497.16;4960117;28;116665;-56
2021/12/28 02:41:02;;;;;;;;;;;;;;;9.24;45.47;99497.69;4961870;28;98164;-63
2021/12/28 02:43:28;;;;;;;;;;;;;;;9.23;45.74;99482.63;4976058;27;99257;-63
2021/12/28 02:45:57;;;;;;;;;;;;;;;9.27;45.92;99480.97;4980287;28;128316;-64
2021/12/28 02:48:23;;;;;;;;;;;;;;;9.29;45.65;99486.88;4981220;27;97598;-57
2021/12/28 02:50:51;;;;;;;;;;;;;;;9.31;46.41;99485.53;4968809;27;97646;-64
2021/12/28 02:53:17;;;;;;;;;;;;;;;9.31;46.08;99474.78;4969266;28;98910;-56
2021/12/28 02:55:44;;;;;;;;;;;;;;;9.34;45.65;99473.38;4962504;28;98056;-63
2021/12/28 02:58:12;;;;;;;;;;;;;;;9.35;45.97;99466.91;4960684;28;101544;-64
2021/12/28 03:00:44;;;;;;;;;;;;;;;9.37;45.78;99461.28;4961386;28;97763;-63
2021/12/28 03:03:15;;;;;;;;;;;;;;;9.38;46.14;99462.88;4960633;28;98897;-63
2021/12/28 03:05:42;;;;;;;;;;;;;;;9.40;45.51;99458.03;4970498;28;117242;-56
2021/12/28 03:08:08;;;;;;;;;;;;;;;9.42;45.99;99466.59;4980644;27;118504;-63
2021/12/28 03:10:35;;;;;;;;;;;;;;;9.43;45.89;99460.13;4976065;27;97741;-56
2021/12/28 03:13:01;;;;;;;;;;;;;;;9.44;46.29;99465.22;4974055;28;105135;-56
2021/12/28 03:15:27;;;;;;;;;;;;;;;9.46;46.26;99464.94;4980674;27;121477;-63
2021/12/28 03:17:53;;;;;;;;;;;;;;;9.48;45.86;99463.59;4979299;28;127634;-56
2021/12/28 03:20:19;;;;;;;;;;;;;;;9.48;45.70;99462.78;4972002;28;115212;-63
2021/12/28 03:22:45;;;;;;;;;;;;;;;9.48;45.54;99458.19;4980592;28;129673;-57
2021/12/28 03:25:11;;;;;;;;;;;;;;;9.49;46.37;99465.19;4980165;27;128362;-56
2021/12/28 03:27:37;;;;;;;;;;;;;;;9.51;46.14;99452.25;4979868;28;108806;-56
2021/12/28 03:30:05;;;;;;;;;;;;;;;9.52;45.80;99453.84;4981087;28;97788;-55
2021/12/28 03:32:31;;;;;;;;;;;;;;;9.52;46.01;99451.16;4979924;27;108835;-63
2021/12/28 03:34:57;;;;;;;;;;;;;;;9.53;45.86;99444.69;4979748;28;126955;-56
2021/12/28 03:37:23;;;;;;;;;;;;;;;9.53;45.74;99444.69;4979586;27;126599;-63
2021/12/28 03:39:49;;;;;;;;;;;;;;;9.55;46.34;99447.91;4977176;27;98103;-56
2021/12/28 03:42:15;;;;;;;;;;;;;;;9.57;45.71;99442.22;4958454;28;128001;-57
2021/12/28 03:44:41;;;;;;;;;;;;;;;9.57;46.35;99447.63;4960479;28;128591;-57
2021/12/28 03:47:07;;;;;;;;;;;;;;;9.58;46.13;99441.94;4960606;28;120649;-64
2021/12/28 03:49:33;;;;;;;;;;;;;;;9.58;46.48;99433.88;4960941;28;98025;-63
2021/12/28 03:52:00;;;;;;;;;;;;;;;9.60;46.38;99428.22;4960610;28;98873;-56
2021/12/28 03:54:26;;;;;;;;;;;;;;;9.61;46.65;99427.13;4961107;28;98831;-58
2021/12/28 03:56:53;;;;;;;;;;;;;;;9.62;46.00;99428.72;4961022;28;126070;-56
2021/12/28 03:59:19;;;;;;;;;;;;;;;9.64;45.64;99425.75;4961429;28;98029;-64
2021/12/28 04:01:45;;;;;;;;;;;;;;;9.65;45.72;99430.03;4960986;28;99013;-56
2021/12/28 04:04:11;;;;;;;;;;;;;;;9.65;45.85;99422.78;4958913;28;128666;-56
2021/12/28 04:06:37;;;;;;;;;;;;;;;9.67;45.98;99411.72;4961997;28;127555;-64
2021/12/28 04:09:06;;;;;;;;;;;;;;;9.68;45.93;99410.66;4963252;28;97813;-56
2021/12/28 04:11:32;;;;;;;;;;;;;;;9.68;45.76;99411.44;4975180;28;98420;-57
2021/12/28 04:14:03;;;;;;;;;;;;;;;9.70;46.31;99403.06;4983071;27;105446;-64
2021/12/28 04:16:30;;;;;;;;;;;;;;;9.72;45.71;99390.16;4966784;27;114385;-57
2021/12/28 04:18:56;;;;;;;;;;;;;;;9.72;45.70;99393.63;4963292;28;112108;-56
2021/12/28 04:21:21;;;;;;;;;;;;;;;9.74;46.56;99394.13;4963420;27;97837;-56
2021/12/28 04:23:47;;;;;;;;;;;;;;;9.76;45.77;99383.09;4962671;28;128607;-63
2021/12/28 04:26:14;;;;;;;;;;;;;;;9.77;45.90;99395.47;4977950;28;126532;-56
2021/12/28 04:28:40;;;;;;;;;;;;;;;9.76;46.29;99383.91;4963055;28;109294;-56
2021/12/28 04:31:06;;;;;;;;;;;;;;;9.79;46.61;99404.84;4963148;28;98307;-56
2021/12/28 04:33:32;;;;;;;;;;;;;;;9.80;46.42;99394.88;4963660;28;98846;-56
2021/12/28 04:35:57;;;;;;;;;;;;;;;9.80;46.34;99398.38;4964623;28;97786;-56
2021/12/28 04:38:23;;;;;;;;;;;;;;;9.83;46.30;99388.94;4962866;28;111302;-57
2021/12/28 04:40:49;;;;;;;;;;;;;;;9.82;46.08;99387.31;4962354;28;121445;-63
2021/12/28 04:43:16;;;;;;;;;;;;;;;9.82;46.23;99374.69;4962653;28;117666;-56
2021/12/28 04:45:42;;;;;;;;;;;;;;;9.83;46.48;99373.59;4964590;28;97790;-57
2021/12/28 04:48:08;;;;;;;;;;;;;;;9.84;46.04;99369.78;4963333;28;97909;-56
2021/12/28 04:50:38;;;;;;;;;;;;;;;9.86;46.59;99374.09;4963261;28;98033;-56
2021/12/28 04:53:09;;;;;;;;;;;;;;;9.87;45.90;99378.41;5000839;27;100926;-63
2021/12/28 04:55:40;;;;;;;;;;;;;;;9.87;46.42;99376.50;4969469;27;98125;-57
2021/12/28 04:58:06;;;;;;;;;;;;;;;9.88;46.18;99385.38;4962899;28;100047;-63
2021/12/28 05:00:32;;;;;;;;;;;;;;;9.87;46.33;99379.19;4962572;28;98350;-56
2021/12/28 05:02:58;;;;;;;;;;;;;;;9.89;46.77;99378.91;4962417;28;127254;-56
2021/12/28 05:05:24;;;;;;;;;;;;;;;9.90;45.88;99386.66;4962684;28;120071;-56
2021/12/28 05:07:49;;;;;;;;;;;;;;;9.91;46.18;99384.81;4962664;28;114377;-56
2021/12/28 05:10:15;;;;;;;;;;;;;;;9.92;46.48;99381.00;4961615;28;128777;-56
2021/12/28 05:12:42;;;;;;;;;;;;;;;9.93;46.55;99385.31;4962298;28;127096;-63
2021/12/28 05:15:10;;;;;;;;;;;;;;;9.92;46.22;99375.63;4963954;28;97924;-63
2021/12/28 05:17:36;;;;;;;;;;;;;;;9.94;46.60;99381.50;4964093;28;98172;-63
2021/12/28 05:20:02;;;;;;;;;;;;;;;9.94;46.40;99378.81;4967177;28;98611;-56
2021/12/28 05:22:28;;;;;;;;;;;;;;;9.94;46.37;99371.56;4963714;27;115385;-63
2021/12/28 05:24:54;;;;;;;;;;;;;;;9.95;46.65;99375.06;4961687;28;126166;-55
2021/12/28 05:27:20;;;;;;;;;;;;;;;9.95;46.75;99375.06;4962198;28;116051;-63
2021/12/28 05:29:46;;;;;;;;;;;;;;;9.95;45.97;99370.47;4993638;27;129073;-62
2021/12/28 05:32:12;;;;;;;;;;;;;;;9.96;46.43;99373.97;4961998;28;127543;-56
2021/12/28 05:34:38;;;;;;;;;;;;;;;9.95;46.31;99365.09;4963574;28;98740;-55
2021/12/28 05:37:04;;;;;;;;;;;;;;;9.95;46.65;99367.78;4963214;28;97816;-55
2021/12/28 05:39:30;;;;;;;;;;;;;;;9.95;46.97;99358.91;4962102;28;111161;-56
2021/12/28 05:41:56;;;;;;;;;;;;;;;9.94;47.01;99366.19;4962325;28;98271;-63
2021/12/28 05:44:23;;;;;;;;;;;;;;;9.93;46.72;99355.69;4973797;28;98543;-63
2021/12/28 05:46:49;;;;;;;;;;;;;;;9.94;46.85;99365.38;4981982;27;97688;-56
2021/12/28 05:49:15;;;;;;;;;;;;;;;9.94;47.11;99373.44;4973908;28;110956;-57
2021/12/28 05:51:41;;;;;;;;;;;;;;;9.94;46.36;99379.66;4962100;28;128026;-56
2021/12/28 05:54:07;;;;;;;;;;;;;;;9.95;47.17;99367.00;4959128;28;125847;-55
2021/12/28 05:56:33;;;;;;;;;;;;;;;9.94;46.94;99358.13;4993843;27;116792;-56
2021/12/28 05:58:59;;;;;;;;;;;;;;;9.95;46.79;99358.91;4976088;27;127495;-56
2021/12/28 06:01:25;;;;;;;;;;;;;;;9.94;46.91;99350.03;4963160;28;103916;-62
2021/12/28 06:03:51;;;;;;;;;;;;;;;9.95;46.84;99334.69;4960467;28;127559;-56
2021/12/28 06:06:17;;;;;;;;;;;;;;;9.94;47.21;99338.44;4961216;28;116772;-56
2021/12/28 06:08:43;;;;;;;;;;;;;;;9.95;46.93;99340.06;4960576;28;129005;-55
2021/12/28 06:11:12;;;;;;;;;;;;;;;9.94;47.46;99333.06;4960167;28;128997;-56
2021/12/28 06:13:40;;;;;;;;;;;;;;;9.94;46.70;99341.13;4961455;28;98012;-56
2021/12/28 06:16:07;;;;;;;;;;;;;;;9.92;47.07;99335.25;4962655;28;97752;-56
2021/12/28 06:18:33;;;;;;;;;;;;;;;9.92;46.80;99340.63;4978870;27;97709;-57
2021/12/28 06:20:59;;;;;;;;;;;;;;;9.92;47.12;99332.56;4971687;28;98371;-56
2021/12/28 06:23:25;;;;;;;;;;;;;;;9.92;46.95;99335.25;4960679;28;128098;-56
2021/12/28 06:25:50;;;;;;;;;;;;;;;9.90;47.09;99340.91;4961457;28;97942;-56
2021/12/28 06:28:16;;;;;;;;;;;;;;;9.91;46.99;99328.28;4959484;28;127875;-56
2021/12/28 06:30:42;;;;;;;;;;;;;;;9.90;47.15;99340.13;4961346;28;126854;-56
2021/12/28 06:33:08;;;;;;;;;;;;;;;9.90;46.89;99337.41;4963204;28;128533;-56
2021/12/28 06:35:34;;;;;;;;;;;;;;;9.91;47.01;99330.97;4961276;28;116973;-57
2021/12/28 06:38:00;;;;;;;;;;;;;;;9.89;47.63;99325.06;4959847;28;127956;-57
2021/12/28 06:40:26;;;;;;;;;;;;;;;9.91;46.79;99334.47;4959943;28;119852;-56
2021/12/28 06:42:52;;;;;;;;;;;;;;;9.90;46.92;99346.28;4958274;28;117676;-56
2021/12/28 06:45:18;;;;;;;;;;;;;;;9.89;47.12;99347.41;4967583;28;109586;-56
2021/12/28 06:47:44;;;;;;;;;;;;;;;9.91;47.25;99344.44;4980454;28;128777;-56
2021/12/28 06:50:10;;;;;;;;;;;;;;;9.91;47.07;99345.22;4978254;27;99462;-56
2021/12/28 06:52:36;;;;;;;;;;;;;;;9.90;47.49;99343.59;4979011;28;128635;-56
2021/12/28 06:55:03;;;;;;;;;;;;;;;9.91;46.87;99344.44;4966178;27;98074;-56
2021/12/28 06:57:29;;;;;;;;;;;;;;;9.91;47.20;99331.78;4959302;28;118020;-56
2021/12/28 06:59:55;;;;;;;;;;;;;;;9.91;47.21;99337.16;4960234;28;129752;-56
2021/12/28 07:02:21;;;;;;;;;;;;;;;9.91;47.53;99329.06;4959448;28;126650;-56
2021/12/28 07:04:47;;;;;;;;;;;;;;;9.91;47.46;99325.59;4975101;28;117290;-56
2021/12/28 07:07:13;;;;;;;;;;;;;;;9.92;47.57;99325.28;4965598;28;101190;-57
2021/12/28 07:09:39;;;;;;;;;;;;;;;9.90;47.15;99315.88;4961635;28;99008;-56
2021/12/28 07:12:05;;;;;;;;;;;;;;;9.92;47.18;99314.50;4959629;28;119846;-56
2021/12/28 07:14:31;;;;;;;;;;;;;;;9.94;47.75;99322.28;4961841;28;101084;-56
2021/12/28 07:16:57;;;;;;;;;;;;;;;9.94;46.91;99315.03;4963935;28;116105;-56
2021/12/28 07:19:24;;;;;;;;;;;;;;;9.95;47.34;99316.63;4961446;28;98550;-56
2021/12/28 07:21:50;;;;;;;;;;;;;;;9.96;47.21;99312.84;4957355;28;122047;-56
2021/12/28 07:24:15;;;;;;;;;;;;;;;9.97;47.72;99311.75;4959338;28;117587;-58
2021/12/28 07:26:41;;;;;;;;;;;;;;;9.97;47.26;99313.63;4957596;28;128772;-56
2021/12/28 07:29:07;;;;;;;;;;;;;;;9.98;47.47;99315.22;4955728;28;128298;-56
2021/12/28 07:31:33;;;;;;;;;;;;;;;9.99;47.73;99317.66;4959614;28;97942;-56
2021/12/28 07:33:59;;;;;;;;;;;;;;;10.01;47.36;99311.97;4958201;28;110170;-55
2021/12/28 07:36:26;;;;;;;;;;;;;;;10.01;47.22;99310.06;4957656;28;128442;-63
2021/12/28 07:38:52;;;;;;;;;;;;;;;10.03;47.87;99313.28;4957266;28;110471;-56
2021/12/28 07:41:17;;;;;;;;;;;;;;;10.05;47.61;99308.41;4965353;28;99491;-63
2021/12/28 07:43:43;;;;;;;;;;;;;;;10.07;47.02;99308.91;4961533;28;111364;-63
2021/12/28 07:46:09;;;;;;;;;;;;;;;10.10;47.55;99304.84;4960912;28;98263;-63
2021/12/28 07:48:35;;;;;;;;;;;;;;;10.13;47.63;99298.06;4960334;28;113556;-63
2021/12/28 07:51:01;;;;;;;;;;;;;;;10.17;47.27;99296.38;4963238;28;101082;-63
2021/12/28 07:53:27;;;;;;;;;;;;;;;10.19;47.01;99303.09;4961007;27;98220;-63
2021/12/28 07:55:54;;;;;;;;;;;;;;;10.22;46.84;99301.72;4960229;28;129327;-63
2021/12/28 07:58:19;;;;;;;;;;;;;;;10.25;47.84;99299.25;4960834;28;98758;-63
2021/12/28 08:00:45;;;;;;;;;;;;;;;10.28;47.44;99277.13;4968875;28;127748;-63
2021/12/28 08:03:11;;;;;;;;;;;;;;;10.33;47.48;99284.31;4956831;28;116124;-63
2021/12/28 08:05:37;;;;;;;;;;;;;;;10.37;47.42;99277.25;4960019;28;128798;-63
2021/12/28 08:08:03;;;;;;;;;;;;;;;10.41;47.48;99277.44;4961751;28;98720;-62
2021/12/28 08:10:29;;;;;;;;;;;;;;;10.49;47.51;99279.47;4960657;28;106645;-63
2021/12/28 08:12:56;;;;;;;;;;;;;;;10.55;47.26;99279.09;4961202;28;108355;-63
2021/12/28 08:15:23;;;;;;;;;;;;;;;10.63;46.49;99274.94;4961307;28;99039;-63
2021/12/28 08:17:49;;;;;;;;;;;;;;;10.72;47.31;99277.75;4958724;28;98813;-62
2021/12/28 08:20:15;;;;;;;;;;;;;;;10.84;46.53;99275.34;4961499;28;127594;-63
2021/12/28 08:22:41;;;;;;;;;;;;;;;10.92;46.96;99282.75;4960702;28;98042;-63
2021/12/28 08:25:08;;;;;;;;;;;;;;;10.95;47.14;99274.06;4962356;27;98771;-63
2021/12/28 08:27:34;;;;;;;;;;;;;;;10.99;46.53;99267.00;4940035;28;99507;-63
2021/12/28 08:30:00;;;;;;;;;;;;;;;11.04;46.91;99274.19;4963054;28;127403;-64
2021/12/28 08:32:26;;;;;;;;;;;;;;;11.09;47.19;99266.00;4960034;28;105854;-64
2021/12/28 08:34:52;;;;;;;;;;;;;;;11.12;46.38;99270.81;4965011;28;128228;-63
2021/12/28 08:37:18;;;;;;;;;;;;;;;11.13;47.19;99268.91;4961421;28;126150;-63
2021/12/28 08:39:44;;;;;;;;;;;;;;;11.17;46.65;99269.91;4959723;28;126457;-64
2021/12/28 08:42:10;;;;;;;;;;;;;;;11.17;46.97;99254.53;4959094;28;98171;-63
2021/12/28 08:44:36;;;;;;;;;;;;;;;11.22;46.56;99256.31;4959870;28;120709;-63
2021/12/28 08:47:02;;;;;;;;;;;;;;;11.27;46.75;99250.81;4957874;28;127797;-63
2021/12/28 08:49:28;;;;;;;;;;;;;;;11.33;46.73;99251.53;4958959;28;114507;-63
2021/12/28 08:51:54;;;;;;;;;;;;;;;11.36;46.86;99251.72;4958980;28;108336;-63
2021/12/28 08:54:20;;;;;;;;;;;;;;;11.39;46.49;99253.78;4960423;27;98602;-64
2021/12/28 08:56:46;;;;;;;;;;;;;;;11.42;47.13;99266.69;4959899;28;113843;-63
2021/12/28 08:59:13;;;;;;;;;;;;;;;11.43;47.05;99262.88;4957855;28;98766;-62
2021/12/28 09:01:40;;;;;;;;;;;;;;;11.46;47.17;99254.19;4959360;28;98358;-63
2021/12/28 09:04:06;;;;;;;;;;;;;;;11.48;47.27;99260.09;4958112;28;119481;-62
2021/12/28 09:06:32;;;;;;;;;;;;;;;11.49;47.11;99255.50;4960606;28;98452;-64
2021/12/28 09:08:57;;;;;;;;;;;;;;;11.50;47.26;99244.38;4957498;28;128164;-63
2021/12/28 09:11:24;;;;;;;;;;;;;;;11.53;46.87;99262.69;4958847;28;97842;-63
2021/12/28 09:13:50;;;;;;;;;;;;;;;11.54;46.62;99258.06;4957949;28;98065;-63
2021/12/28 09:16:16;;;;;;;;;;;;;;;11.57;47.21;99262.88;4961359;28;114902;-64
2021/12/28 09:18:42;;;;;;;;;;;;;;;11.58;47.01;99269.06;4959906;28;127561;-63
2021/12/28 09:21:08;;;;;;;;;;;;;;;11.60;47.15;99266.88;4957378;28;98323;-63
2021/12/28 09:23:34;;;;;;;;;;;;;;;11.60;47.00;99253.38;4957850;28;117637;-64
2021/12/28 09:26:00;;;;;;;;;;;;;;;11.61;46.91;99252.28;4958778;28;98883;-63
2021/12/28 09:28:26;;;;;;;;;;;;;;;11.61;47.07;99249.59;4961625;27;127798;-64
2021/12/28 09:30:52;;;;;;;;;;;;;;;11.60;47.07;99250.69;4939284;28;117128;-63
2021/12/28 09:33:19;;;;;;;;;;;;;;;11.59;47.33;99252.56;4956417;28;98619;-63
2021/12/28 09:35:45;;;;;;;;;;;;;;;11.58;47.47;99242.88;4893153;28;1880499;-64
2021/12/28 09:38:11;;;;;;;;;;;;;;;11.59;47.35;99249.88;4958846;28;98013;-63
2021/12/28 09:40:37;;;;;;;;;;;;;;;11.59;47.18;99243.66;4941198;28;112638;-63
2021/12/28 09:43:06;;;;;;;;;;;;;;;11.60;47.52;99250.69;4958926;28;98330;-63
2021/12/28 09:45:33;;;;;;;;;;;;;;;11.61;47.27;99249.59;4959830;28;98512;-63
2021/12/28 09:47:59;;;;;;;;;;;;;;;11.60;47.71;99248.78;4958016;28;98733;-63
2021/12/28 09:50:25;;;;;;;;;;;;;;;11.63;47.29;99252.75;4959166;28;109697;-63
2021/12/28 09:52:51;;;;;;;;;;;;;;;11.63;47.75;99245.50;4958550;28;114163;-63
2021/12/28 09:55:19;;;;;;;;;;;;;;;11.67;47.66;99251.88;4959170;28;122268;-64
2021/12/28 09:57:45;;;;;;;;;;;;;;;11.72;47.37;99246.34;4966165;27;98180;-64
2021/12/28 10:00:12;;;;;;;;;;;;;;;11.79;47.09;99251.34;4959209;28;98099;-64
2021/12/28 10:02:38;;;;;;;;;;;;;;;11.87;47.02;99242.56;4972038;28;119510;-63
2021/12/28 10:05:08;;;;;;;;;;;;;;;12.00;47.14;99246.28;4958763;28;124178;-64
2021/12/28 10:07:36;;;;;;;;;;;;;;;12.21;46.66;99233.88;4958735;28;98391;-64
2021/12/28 10:10:06;;;;;;;;;;;;;;;12.31;46.98;99232.06;4968300;28;98503;-64
2021/12/28 10:12:34;;;;;;;;;;;;;;;12.36;46.86;99238.13;4965320;28;98137;-64
2021/12/28 10:15:02;;;;;;;;;;;;;;;12.43;46.85;99222.28;4958630;27;99635;-56
2021/12/28 10:17:29;;;;;;;;;;;;;;;12.60;46.59;99224.28;4955974;28;98051;-57
2021/12/28 10:19:55;;;;;;;;;;;;;;;12.79;46.44;99221.34;4959254;27;98498;-57
2021/12/28 10:22:28;;;;;;;;;;;;;;;12.91;46.59;99215.34;4958115;28;128407;-64
2021/12/28 10:25:00;;;;;;;;;;;;;;;13.00;46.57;99210.75;4958949;28;98254;-64
2021/12/28 10:27:28;;;;;;;;;;;;;;;13.09;46.35;99214.31;4959145;28;98535;-64
2021/12/28 10:29:54;;;;;;;;;;;;;;;13.18;46.38;99214.31;4959239;28;97850;-57
2021/12/28 10:32:24;;;;;;;;;;;;;;;13.24;46.39;99211.19;4958415;28;98696;-64
2021/12/28 10:34:53;;;;;;;;;;;;;;;13.29;46.36;99202.13;4954816;28;104770;-57
2021/12/28 10:37:31;;;;;;;;;;;;;;;13.28;46.22;99203.22;4957700;28;98010;-57
2021/12/28 10:39:58;;;;;;;;;;;;;;;13.27;46.58;99204.34;4958220;28;98222;-57
2021/12/28 10:42:51;;;;;;;;;;;;;;;13.29;46.40;99201.34;4956881;28;99407;-57
2021/12/28 10:45:26;;;;;;;;;;;;;;;13.41;46.26;99183.34;4956840;28;122103;-57
2021/12/28 10:47:52;;;;;;;;;;;;;;;13.52;46.19;99178.44;4957285;28;120679;-57
2021/12/28 10:50:29;;;;;;;;;;;;;;;13.58;46.55;99173.66;4957112;28;99864;-57
2021/12/28 10:53:21;;;;;;;;;;;;;;;13.66;46.44;99165.53;4952366;28;99147;-57
2021/12/28 10:55:53;;;;;;;;;;;;;;;13.79;46.41;99182.72;4950806;28;99188;-57
2021/12/28 10:58:26;;;;;;;;;;;;;;;13.88;46.37;99177.31;4957365;28;98657;-57
2021/12/28 11:00:52;;;;;;;;;;;;;;;13.95;46.45;99162.19;4957855;28;97706;-56
2021/12/28 11:03:23;;;;;;;;;;;;;;;14.11;46.17;99176.03;4956248;28;98917;-57
2021/12/28 11:05:50;;;;;;;;;;;;;;;14.13;46.18;99167.56;4962313;28;99077;-57
2021/12/28 11:08:16;;;;;;;;;;;;;;;14.12;46.69;99164.06;4957187;28;106347;-58
2021/12/28 11:10:45;;;;;;;;;;;;;;;14.19;46.24;99164.38;4957760;28;98202;-57
2021/12/28 11:13:12;;;;;;;;;;;;;;;14.21;46.66;99164.81;4956987;28;98749;-58
2021/12/28 11:15:41;;;;;;;;;;;;;;;14.23;46.78;99159.09;4957172;28;98907;-57
2021/12/28 11:18:23;;;;;;;;;;;;;;;14.22;46.83;99152.84;4957515;28;98537;-57
2021/12/28 11:20:50;;;;;;;;;;;;;;;14.23;46.87;99140.91;4958533;28;98142;-58
2021/12/28 11:23:20;;;;;;;;;;;;;;;14.23;47.00;99137.41;4956545;28;99191;-65
2021/12/28 11:25:47;;;;;;;;;;;;;;;14.22;46.93;99133.09;4959302;28;98265;-57
2021/12/28 11:28:16;;;;;;;;;;;;;;;14.21;47.08;99126.88;4955801;28;121116;-64
2021/12/28 11:31:01;;;;;;;;;;;;;;;14.22;47.17;99135.81;4962957;27;98318;-57
2021/12/28 11:33:37;;;;;;;;;;;;;;;14.21;46.72;99131.50;4957047;28;98890;-57
2021/12/28 11:36:03;;;;;;;;;;;;;;;14.17;47.21;99128.66;4955151;28;115823;-57
2021/12/28 11:38:29;;;;;;;;;;;;;;;14.15;47.32;99116.56;4956440;28;117445;-57
2021/12/28 11:40:55;;;;;;;;;;;;;;;14.13;46.95;99110.66;4942362;28;116351;-64
2021/12/28 11:43:21;;;;;;;;;;;;;;;14.08;47.44;99108.91;4954793;28;128524;-64
2021/12/28 11:45:47;;;;;;;;;;;;;;;14.00;47.39;99115.16;4956794;28;128430;-58
2021/12/28 11:48:13;;;;;;;;;;;;;;;13.89;47.68;99111.19;4956089;28;125850;-57
2021/12/28 11:50:39;;;;;;;;;;;;;;;13.77;47.64;99106.44;4957526;28;116902;-57
2021/12/28 11:53:05;;;;;;;;;;;;;;;13.63;47.91;99098.47;4954392;28;127337;-57
2021/12/28 11:55:31;;;;;;;;;;;;;;;13.60;47.73;99092.94;4958198;28;98231;-64
2021/12/28 11:57:57;;;;;;;;;;;;;;;13.59;47.82;99083.97;4956061;28;127056;-63
2021/12/28 12:00:23;;;;;;;;;;;;;;;13.59;47.63;99078.56;4956163;28;116704;-57
2021/12/28 12:02:53;;;;;;;;;;;;;;;13.56;47.58;99076.53;4957174;28;98746;-57
2021/12/28 12:05:25;;;;;;;;;;;;;;;13.55;47.57;99085.75;4953823;28;99137;-64
2021/12/28 12:08:17;;;;;;;;;;;;;;;13.51;47.69;99085.56;4956768;28;97942;-57
2021/12/28 12:10:49;;;;;;;;;;;;;;;13.51;47.99;99088.28;4954288;28;117350;-57
2021/12/28 12:13:18;;;;;;;;;;;;;;;13.50;47.68;99073.16;4970346;28;99431;-64
2021/12/28 12:15:45;;;;;;;;;;;;;;;13.50;47.81;99078.59;4956330;28;98112;-57
2021/12/28 12:18:14;;;;;;;;;;;;;;;13.48;47.71;99070.00;4954597;28;119917;-64
2021/12/28 12:20:45;;;;;;;;;;;;;;;13.45;47.69;99069.84;4958569;28;98306;-64
2021/12/28 12:23:14;;;;;;;;;;;;;;;13.41;48.06;99058.84;4956277;28;98094;-57
2021/12/28 12:25:49;;;;;;;;;;;;;;;13.37;47.82;99049.78;4957280;28;98465;-64
2021/12/28 12:28:15;;;;;;;;;;;;;;;13.29;47.84;99042.47;4953067;28;97931;-57
2021/12/28 12:30:45;;;;;;;;;;;;;;;13.24;48.10;99050.72;4964010;28;98245;-56
2021/12/28 12:33:12;;;;;;;;;;;;;;;13.16;48.32;99041.47;4960858;28;98141;-64
2021/12/28 12:35:53;;;;;;;;;;;;;;;13.08;48.12;99044.19;4960324;28;119779;-64
2021/12/28 12:38:25;;;;;;;;;;;;;;;12.98;48.41;99050.72;4960751;28;97875;-57
2021/12/28 12:40:50;;;;;;;;;;;;;;;12.92;48.48;99041.16;4961012;28;97906;-57
2021/12/28 12:43:16;;;;;;;;;;;;;;;12.86;48.44;99035.09;4958868;28;98230;-57
2021/12/28 12:45:56;;;;;;;;;;;;;;;12.84;48.46;99031.91;4964861;28;121871;-64
2021/12/28 12:48:37;;;;;;;;;;;;;;;12.83;48.40;99022.22;4953886;28;98046;-57